Terminal Aerodrome Forecast
Issued by NWS Lake Charles, LA

Current Version | Previous Version | Text Only | Print | Product List | Glossary On
Versions: 1 2 3 4 5 6 7 8 9 10 11 12
975
FTUS44 KLCH 062326
TAFBPT
TAF
KBPT 062326Z 0700/0724 VRB03KT P6SM SKC
     FM071500 16006KT P6SM SKC=

USA.gov is the U.S. government's official web portal to all federal, state and local government web resources and services.